createdAt,value
2023-02-28T00:00:17.346Z,7.03
2023-02-28T00:02:45.828Z,7.30
2023-02-28T00:05:15.469Z,8.53
2023-02-28T00:07:43.432Z,7.97
2023-02-28T00:10:14.657Z,9.83
2023-02-28T00:12:42.759Z,6.17
2023-02-28T00:15:12.218Z,6.93
2023-02-28T00:17:40.209Z,7.67
2023-02-28T00:20:11.023Z,8.43
2023-02-28T00:22:39.419Z,11.73
2023-02-28T00:25:08.923Z,7.07
2023-02-28T00:27:40.893Z,6.97
2023-02-28T00:30:10.958Z,4.53
2023-02-28T00:32:39.253Z,6.63
2023-02-28T00:35:09.528Z,5.57
2023-02-28T00:37:37.776Z,8.90
2023-02-28T00:40:08.367Z,12.07
2023-02-28T00:42:37.974Z,7.73
2023-02-28T00:45:07.282Z,11.07
2023-02-28T00:47:34.966Z,6.17
2023-02-28T00:50:03.201Z,7.80
2023-02-28T00:52:30.845Z,6.43
2023-02-28T00:54:58.506Z,7.87
2023-02-28T00:57:26.143Z,5.50
2023-02-28T00:59:56.147Z,5.20
2023-02-28T01:02:24.168Z,7.37
2023-02-28T01:04:54.748Z,5.87
2023-02-28T01:07:22.595Z,9.20
2023-02-28T01:09:50.830Z,10.93
2023-02-28T01:12:18.748Z,6.37
2023-02-28T01:14:48.435Z,14.13
2023-02-28T01:17:17.486Z,6.77
2023-02-28T01:19:45.071Z,7.87
2023-02-28T01:22:12.756Z,7.90
2023-02-28T01:24:40.900Z,7.97
2023-02-28T01:27:08.496Z,7.27
2023-02-28T01:29:38.632Z,7.47
2023-02-28T01:32:06.395Z,6.50
2023-02-28T01:34:38.230Z,9.13
2023-02-28T01:37:06.419Z,5.70
2023-02-28T01:39:34.227Z,7.20
2023-02-28T01:42:01.879Z,7.43
2023-02-28T01:44:59.033Z,7.87
2023-02-28T01:47:29.336Z,8.13
2023-02-28T01:50:00.673Z,7.87
2023-02-28T01:52:28.926Z,6.33
2023-02-28T01:54:59.133Z,9.30
2023-02-28T01:57:32.163Z,10.50
2023-02-28T02:00:04.583Z,10.63
2023-02-28T02:02:41.114Z,6.13
2023-02-28T02:05:13.346Z,10.10
2023-02-28T02:07:42.609Z,5.43
2023-02-28T02:10:15.802Z,4.47
2023-02-28T02:13:06.785Z,6.13
2023-02-28T02:15:36.618Z,9.40
2023-02-28T02:18:13.970Z,12.73
2023-02-28T02:21:28.239Z,7.77
2023-02-28T02:24:14.690Z,5.93
2023-02-28T02:26:54.286Z,6.27
2023-02-28T02:29:36.143Z,11.17
2023-02-28T02:32:19.477Z,7.00
2023-02-28T02:34:59.206Z,12.50
2023-02-28T02:37:32.496Z,7.80
2023-02-28T02:40:06.267Z,9.50
2023-02-28T02:42:41.716Z,10.03
2023-02-28T02:45:12.654Z,8.27
2023-02-28T02:47:41.245Z,7.40
2023-02-28T02:50:15.450Z,12.03
2023-02-28T02:52:45.603Z,9.00
2023-02-28T02:55:14.906Z,7.30
2023-02-28T02:57:48.816Z,9.00
2023-02-28T03:00:18.676Z,8.10
2023-02-28T03:02:50.484Z,11.80
2023-02-28T03:05:22.399Z,10.40
2023-02-28T03:07:50.095Z,8.30
2023-02-28T03:10:33.410Z,8.33
2023-02-28T03:13:43.330Z,16.93
2023-02-28T03:16:37.423Z,7.93
2023-02-28T03:19:20.268Z,6.37
2023-02-28T03:22:00.491Z,8.63
2023-02-28T03:24:33.092Z,6.63
2023-02-28T03:27:06.792Z,6.23
2023-02-28T03:29:37.436Z,7.70
2023-02-28T03:32:12.466Z,7.20
2023-02-28T03:34:42.849Z,7.90
2023-02-28T03:37:14.279Z,10.73
2023-02-28T03:39:44.263Z,5.87
2023-02-28T03:42:13.959Z,7.93
2023-02-28T03:44:45.490Z,8.10
2023-02-28T03:47:15.841Z,8.23
2023-02-28T03:49:48.794Z,10.17
2023-02-28T03:52:19.695Z,8.57
2023-02-28T03:54:52.685Z,7.40
2023-02-28T03:57:24.849Z,9.07
2023-02-28T03:59:56.585Z,8.90
2023-02-28T04:02:24.327Z,8.53
2023-02-28T04:04:52.593Z,13.80
2023-02-28T04:07:21.782Z,13.57
2023-02-28T04:09:49.647Z,5.90
2023-02-28T04:12:17.432Z,8.53
2023-02-28T04:14:45.285Z,9.07
2023-02-28T04:17:13.991Z,10.07
2023-02-28T04:19:41.694Z,9.17
2023-02-28T04:22:10.263Z,7.83
2023-02-28T04:24:42.487Z,11.73
2023-02-28T04:27:10.859Z,8.17
2023-02-28T04:29:38.865Z,10.30
2023-02-28T04:32:07.059Z,12.20
2023-02-28T04:34:35.217Z,10.93
2023-02-28T04:37:13.330Z,8.83
2023-02-28T04:39:43.717Z,7.60
2023-02-28T04:42:11.658Z,7.50
2023-02-28T04:44:39.287Z,9.33
2023-02-28T04:47:06.982Z,12.73
2023-02-28T04:49:34.654Z,13.90
2023-02-28T04:52:02.977Z,8.90
2023-02-28T04:54:31.273Z,11.87
2023-02-28T04:57:00.282Z,9.47
2023-02-28T04:59:28.000Z,17.37
2023-02-28T05:01:55.677Z,8.30
2023-02-28T05:04:23.413Z,11.37
2023-02-28T05:06:51.233Z,12.30
2023-02-28T05:09:18.857Z,7.63
2023-02-28T05:11:46.529Z,10.43
2023-02-28T05:14:16.019Z,11.77
2023-02-28T05:16:43.755Z,9.63
2023-02-28T05:19:11.853Z,10.63
2023-02-28T05:21:41.338Z,12.10
2023-02-28T05:24:11.502Z,9.80
2023-02-28T05:26:41.885Z,8.80
2023-02-28T05:29:10.349Z,15.00
2023-02-28T05:31:39.593Z,10.80
2023-02-28T05:34:07.411Z,11.00
2023-02-28T05:36:35.257Z,11.80
2023-02-28T05:39:02.870Z,14.63
2023-02-28T05:41:30.894Z,12.27
2023-02-28T05:43:59.310Z,10.47
2023-02-28T05:46:26.972Z,13.63
2023-02-28T05:48:56.871Z,9.63
2023-02-28T05:51:24.536Z,8.67
2023-02-28T05:53:52.175Z,12.80
2023-02-28T05:56:19.890Z,9.10
2023-02-28T05:58:47.555Z,16.93
2023-02-28T06:01:26.951Z,14.03
2023-02-28T06:03:56.063Z,8.47
2023-02-28T06:06:23.687Z,13.27
2023-02-28T06:08:51.329Z,10.67
2023-02-28T06:11:21.579Z,16.70
2023-02-28T06:13:49.637Z,13.00
2023-02-28T06:16:17.933Z,10.07
2023-02-28T06:18:45.612Z,9.47
2023-02-28T06:21:15.784Z,11.67
2023-02-28T06:23:43.589Z,13.23
2023-02-28T06:26:11.458Z,11.90
2023-02-28T06:28:39.185Z,19.90
2023-02-28T06:31:10.866Z,11.10
2023-02-28T06:33:39.434Z,17.20
2023-02-28T06:36:08.690Z,10.97
2023-02-28T06:38:38.824Z,13.47
2023-02-28T06:41:07.543Z,13.13
2023-02-28T06:43:36.754Z,11.23
2023-02-28T06:46:07.086Z,13.80
2023-02-28T06:48:36.093Z,19.40
2023-02-28T06:51:05.334Z,23.30
2023-02-28T06:53:32.998Z,15.33
2023-02-28T06:56:06.856Z,13.60
2023-02-28T06:58:34.798Z,19.77
2023-02-28T07:01:03.213Z,15.00
2023-02-28T07:03:33.967Z,14.77
2023-02-28T07:06:02.699Z,16.97
2023-02-28T07:08:30.466Z,11.77
2023-02-28T07:10:59.073Z,11.47
2023-02-28T07:13:28.256Z,11.80
2023-02-28T07:15:57.344Z,19.43
2023-02-28T07:18:25.936Z,9.40
2023-02-28T07:20:54.156Z,17.17
2023-02-28T07:23:22.603Z,10.60
2023-02-28T07:25:51.354Z,9.20
2023-02-28T07:28:19.196Z,11.83
2023-02-28T07:30:49.165Z,17.07
2023-02-28T07:33:16.886Z,15.30
2023-02-28T07:35:44.690Z,21.50
2023-02-28T07:38:13.721Z,8.57
2023-02-28T07:40:41.609Z,12.83
2023-02-28T07:43:09.297Z,11.67
2023-02-28T07:45:37.050Z,11.83
2023-02-28T07:48:06.344Z,11.87
2023-02-28T07:50:35.512Z,12.60
2023-02-28T07:53:03.474Z,13.90
2023-02-28T07:55:31.296Z,11.70
2023-02-28T07:57:59.227Z,12.83
2023-02-28T08:00:30.113Z,11.33
2023-02-28T08:02:57.852Z,13.60
2023-02-28T08:05:26.907Z,8.23
2023-02-28T08:07:55.603Z,11.23
2023-02-28T08:10:23.336Z,15.20
2023-02-28T08:12:50.998Z,11.70
2023-02-28T08:15:19.238Z,15.47
2023-02-28T08:17:46.960Z,13.90
2023-02-28T08:20:15.441Z,24.00
2023-02-28T08:22:46.011Z,16.13
2023-02-28T08:25:13.894Z,16.97
2023-02-28T08:27:41.878Z,8.50
2023-02-28T08:30:12.460Z,13.13
2023-02-28T08:32:41.049Z,12.23
2023-02-28T08:35:10.229Z,9.40
2023-02-28T08:37:38.089Z,12.33
2023-02-28T08:40:09.036Z,18.03
2023-02-28T08:42:36.947Z,13.30
2023-02-28T08:45:05.326Z,12.90
2023-02-28T08:47:33.458Z,10.30
2023-02-28T08:50:01.246Z,12.40
2023-02-28T08:52:28.991Z,12.77
2023-02-28T08:54:57.093Z,18.07
2023-02-28T08:57:27.200Z,11.57
2023-02-28T08:59:55.191Z,15.53
2023-02-28T09:02:23.060Z,12.60
2023-02-28T09:04:50.969Z,12.00
2023-02-28T09:07:18.818Z,15.27
2023-02-28T09:09:55.617Z,13.13
2023-02-28T09:12:24.671Z,12.13
2023-02-28T09:14:54.063Z,9.27
2023-02-28T09:17:22.446Z,16.07
2023-02-28T09:19:50.305Z,7.30
2023-02-28T09:22:18.189Z,10.67
2023-02-28T09:24:46.069Z,12.40
2023-02-28T09:27:13.742Z,11.00
2023-02-28T09:29:41.504Z,8.47
2023-02-28T09:32:10.771Z,4.17
2023-02-28T09:34:39.516Z,3.90
2023-02-28T09:37:07.411Z,6.60
2023-02-28T09:39:35.126Z,9.87
2023-02-28T09:42:04.074Z,7.77
2023-02-28T09:44:34.509Z,9.03
2023-02-28T09:47:06.106Z,6.67
2023-02-28T09:49:40.849Z,6.60
2023-02-28T09:52:12.517Z,5.60
2023-02-28T09:54:41.363Z,8.30
2023-02-28T09:57:13.169Z,15.60
2023-02-28T09:59:57.090Z,9.17
2023-02-28T10:02:47.026Z,5.60
2023-02-28T10:05:18.101Z,6.50
2023-02-28T10:08:00.207Z,4.20
2023-02-28T10:10:30.800Z,5.43
2023-02-28T10:13:01.452Z,7.07
2023-02-28T10:15:32.446Z,13.43
2023-02-28T10:18:08.754Z,5.37
2023-02-28T10:20:41.980Z,5.53
2023-02-28T10:23:15.173Z,6.70
2023-02-28T10:25:49.086Z,4.60
2023-02-28T10:28:18.891Z,9.40
2023-02-28T10:30:48.939Z,8.60
2023-02-28T10:33:22.139Z,6.03
2023-02-28T10:35:52.016Z,5.27
2023-02-28T10:38:22.500Z,5.50
2023-02-28T10:40:50.237Z,8.30
2023-02-28T10:43:23.690Z,5.90
2023-02-28T10:45:57.839Z,8.43
2023-02-28T10:48:31.667Z,6.33
2023-02-28T10:51:01.502Z,8.00
2023-02-28T10:53:44.726Z,4.87
2023-02-28T10:56:21.714Z,5.03
2023-02-28T10:58:59.242Z,8.37
2023-02-28T11:01:37.031Z,3.90
2023-02-28T11:04:05.575Z,5.93
2023-02-28T11:06:36.340Z,7.07
2023-02-28T11:09:07.903Z,5.27
2023-02-28T11:11:45.355Z,4.70
2023-02-28T11:14:20.810Z,8.60
2023-02-28T11:16:54.868Z,4.50
2023-02-28T11:19:25.555Z,5.50
2023-02-28T11:21:59.685Z,7.17
2023-02-28T11:24:30.054Z,4.97
2023-02-28T11:26:58.286Z,10.83
2023-02-28T11:29:27.822Z,9.23
2023-02-28T11:32:05.803Z,6.17
2023-02-28T11:34:34.122Z,6.03
2023-02-28T11:37:06.121Z,5.13
2023-02-28T11:39:38.852Z,5.77
2023-02-28T11:42:28.065Z,3.90
2023-02-28T11:45:24.594Z,5.13
2023-02-28T11:48:12.074Z,6.40
2023-02-28T11:59:48.462Z,5.90
2023-02-28T12:02:29.500Z,9.50
2023-02-28T12:05:14.737Z,4.80
2023-02-28T12:07:53.575Z,5.90
2023-02-28T12:10:25.730Z,4.73
2023-02-28T12:13:06.686Z,9.80
2023-02-28T12:18:52.945Z,9.53
2023-02-28T13:05:45.363Z,4.50
2023-02-28T14:08:02.946Z,4.37
2023-02-28T14:10:49.015Z,6.50
2023-02-28T14:14:06.880Z,5.37
2023-02-28T14:16:48.220Z,9.10
2023-02-28T14:23:09.507Z,6.77
2023-02-28T14:25:59.864Z,5.87
2023-02-28T14:28:59.808Z,5.37
2023-02-28T14:31:44.662Z,8.90
2023-02-28T14:34:40.308Z,4.30
2023-02-28T14:38:07.811Z,3.90
2023-02-28T14:41:14.318Z,6.20
2023-02-28T14:43:52.963Z,4.40
2023-02-28T14:46:44.104Z,5.17
2023-02-28T14:49:21.032Z,6.00
2023-02-28T14:52:07.859Z,4.77
2023-02-28T14:54:42.031Z,5.63
2023-02-28T14:57:52.774Z,5.30
2023-02-28T15:00:27.402Z,6.47
2023-02-28T15:03:20.299Z,4.30
2023-02-28T15:06:05.926Z,5.40
2023-02-28T15:08:38.263Z,5.57
2023-02-28T15:11:18.419Z,7.63
2023-02-28T15:29:54.044Z,5.30
2023-02-28T15:32:33.869Z,4.27
2023-02-28T15:35:32.099Z,3.93
2023-02-28T15:38:21.678Z,4.93
2023-02-28T15:40:55.991Z,5.07
2023-02-28T15:43:29.826Z,4.53
2023-02-28T15:50:27.278Z,4.07
2023-02-28T15:52:55.009Z,5.57
2023-02-28T15:55:24.987Z,6.77
2023-02-28T15:57:55.347Z,5.53
2023-02-28T16:00:25.178Z,5.90
2023-02-28T16:02:54.650Z,5.17
2023-02-28T16:05:29.216Z,4.83
2023-02-28T16:07:58.091Z,5.43
2023-02-28T16:10:28.609Z,4.83
2023-02-28T16:12:57.674Z,7.30
2023-02-28T16:15:27.058Z,7.53
2023-02-28T16:17:57.502Z,6.83
2023-02-28T16:20:27.458Z,5.73
2023-02-28T16:22:56.088Z,3.83
2023-02-28T16:25:26.087Z,3.83
2023-02-28T16:27:55.980Z,5.80
2023-02-28T16:30:26.321Z,5.50
2023-02-28T16:32:56.690Z,13.13
2023-02-28T16:35:25.752Z,7.73
2023-02-28T16:37:54.258Z,6.73
2023-02-28T16:40:24.149Z,11.80
2023-02-28T16:42:53.602Z,8.87
2023-02-28T16:45:24.093Z,6.13
2023-02-28T16:47:52.033Z,4.70
2023-02-28T16:50:22.984Z,5.63
2023-02-28T16:52:53.084Z,4.67
2023-02-28T16:55:22.593Z,4.80
2023-02-28T16:57:53.338Z,9.93
2023-02-28T17:00:30.520Z,4.53
2023-02-28T17:03:07.676Z,7.57
2023-02-28T17:05:39.422Z,6.37
2023-02-28T17:08:07.562Z,27.73
2023-02-28T17:10:35.496Z,6.70
2023-02-28T17:13:14.261Z,5.50
2023-02-28T17:15:42.597Z,8.80
2023-02-28T17:18:12.350Z,6.83
2023-02-28T17:20:43.165Z,8.50
2023-02-28T17:23:11.333Z,5.97
2023-02-28T17:25:39.177Z,5.93
2023-02-28T17:28:07.425Z,6.10
2023-02-28T17:30:36.550Z,8.53
2023-02-28T17:33:04.177Z,6.90
2023-02-28T17:35:31.858Z,7.43
2023-02-28T17:38:00.823Z,9.90
2023-02-28T17:40:29.133Z,7.27
2023-02-28T17:42:57.817Z,12.43
2023-02-28T17:45:25.599Z,8.53
2023-02-28T17:47:53.656Z,7.70
2023-02-28T17:50:23.411Z,6.53
2023-02-28T17:52:51.521Z,9.07
2023-02-28T17:55:20.955Z,8.23
2023-02-28T17:57:48.780Z,11.53
2023-02-28T18:00:19.389Z,6.50
2023-02-28T18:02:47.214Z,8.23
2023-02-28T18:05:15.265Z,16.37
2023-02-28T18:07:43.123Z,10.43
2023-02-28T18:10:17.050Z,10.53
2023-02-28T18:12:46.087Z,9.90
2023-02-28T18:15:13.846Z,8.77
2023-02-28T18:17:41.527Z,6.90
2023-02-28T18:20:11.424Z,5.50
2023-02-28T18:22:39.779Z,11.97
2023-02-28T18:25:10.065Z,8.93
2023-02-28T18:27:37.957Z,7.90
2023-02-28T18:30:08.257Z,8.70
2023-02-28T18:32:36.014Z,5.07
2023-02-28T18:35:03.920Z,8.20
2023-02-28T18:37:31.633Z,10.20
2023-02-28T18:39:59.346Z,13.07
2023-02-28T18:42:27.120Z,15.63
2023-02-28T18:44:54.913Z,14.67
2023-02-28T18:47:24.097Z,20.63
2023-02-28T18:49:51.752Z,10.80
2023-02-28T18:52:19.419Z,9.47
2023-02-28T18:54:47.482Z,13.50
2023-02-28T18:57:15.591Z,9.80
2023-02-28T18:59:43.470Z,12.13
2023-02-28T19:02:11.269Z,15.30
2023-02-28T19:04:42.037Z,24.97
2023-02-28T19:07:09.735Z,15.53
2023-02-28T19:09:37.485Z,11.27
2023-02-28T19:12:05.239Z,24.87
2023-02-28T19:14:33.346Z,10.27
2023-02-28T19:17:01.019Z,12.30
2023-02-28T19:19:29.208Z,11.60
2023-02-28T19:21:58.565Z,18.27
2023-02-28T19:24:26.402Z,11.23
2023-02-28T19:26:54.015Z,11.50
2023-02-28T19:29:21.620Z,24.00
2023-02-28T19:31:49.386Z,12.60
2023-02-28T19:34:17.092Z,14.77
2023-02-28T19:36:44.831Z,11.07
2023-02-28T19:39:14.405Z,20.37
2023-02-28T19:41:42.042Z,15.17
2023-02-28T19:44:10.037Z,11.80
2023-02-28T19:46:38.150Z,22.93
2023-02-28T19:49:05.843Z,27.93
2023-02-28T19:51:34.338Z,30.03
2023-02-28T19:54:02.593Z,32.43
2023-02-28T19:56:32.148Z,29.47
2023-02-28T19:58:59.938Z,31.27
2023-02-28T20:01:27.594Z,26.53
2023-02-28T20:03:55.659Z,22.60
2023-02-28T20:06:23.433Z,21.37
2023-02-28T20:08:52.339Z,23.17
2023-02-28T20:11:20.033Z,34.53
2023-02-28T20:13:49.147Z,22.93
2023-02-28T20:16:17.375Z,30.20
2023-02-28T20:18:46.291Z,37.17
2023-02-28T20:21:16.498Z,50.33
2023-02-28T20:23:45.028Z,36.90
2023-02-28T20:26:13.808Z,39.77
2023-02-28T20:28:42.023Z,35.60
2023-02-28T20:31:14.956Z,30.30
2023-02-28T20:33:45.535Z,32.53
2023-02-28T20:36:15.693Z,30.80
2023-02-28T20:38:43.596Z,32.80
2023-02-28T20:41:11.581Z,31.93
2023-02-28T20:43:40.125Z,34.13
2023-02-28T20:46:07.967Z,30.80
2023-02-28T20:48:37.651Z,32.10
2023-02-28T20:51:06.246Z,28.83
2023-02-28T20:53:35.797Z,40.10
2023-02-28T20:56:05.658Z,38.50
2023-02-28T20:58:35.465Z,35.53
2023-02-28T21:01:03.849Z,27.03
2023-02-28T21:03:32.820Z,30.33
2023-02-28T21:06:02.783Z,22.47
2023-02-28T21:08:31.109Z,34.13
2023-02-28T21:10:58.876Z,28.93
2023-02-28T21:13:27.253Z,29.17
2023-02-28T21:15:55.413Z,23.20
2023-02-28T21:18:23.126Z,40.90
2023-02-28T21:20:50.829Z,22.27
2023-02-28T21:23:20.001Z,36.27
2023-02-28T21:25:47.813Z,27.60
2023-02-28T21:28:15.559Z,31.73
2023-02-28T21:30:43.324Z,26.00
2023-02-28T21:33:11.060Z,36.67
2023-02-28T21:35:38.996Z,22.73
2023-02-28T21:38:06.791Z,26.80
2023-02-28T21:40:36.070Z,24.13
2023-02-28T21:43:03.963Z,22.27
2023-02-28T21:45:31.927Z,19.33
2023-02-28T21:47:59.628Z,27.80
2023-02-28T21:50:27.483Z,22.53
2023-02-28T21:52:55.315Z,34.13
2023-02-28T21:55:23.016Z,25.93
2023-02-28T21:57:53.030Z,27.00
2023-02-28T22:00:21.845Z,22.70
2023-02-28T22:02:49.552Z,24.70
2023-02-28T22:05:17.567Z,33.43
2023-02-28T22:07:45.982Z,35.30
2023-02-28T22:10:13.967Z,25.60
2023-02-28T22:12:41.844Z,29.87
2023-02-28T22:15:12.678Z,36.20
2023-02-28T22:17:40.681Z,31.17
2023-02-28T22:20:09.240Z,28.50
2023-02-28T22:22:37.052Z,23.70
2023-02-28T22:25:05.373Z,26.33
2023-02-28T22:27:33.134Z,31.63
2023-02-28T22:30:01.073Z,28.57
2023-02-28T22:32:30.363Z,31.43
2023-02-28T22:34:58.941Z,24.90
2023-02-28T22:37:26.625Z,33.33
2023-02-28T22:39:54.586Z,31.93
2023-02-28T22:42:22.475Z,33.23
2023-02-28T22:44:51.572Z,28.87
2023-02-28T22:47:19.940Z,29.53
2023-02-28T22:49:49.028Z,30.77
2023-02-28T22:52:16.986Z,33.23
2023-02-28T22:54:45.091Z,28.20
2023-02-28T22:57:13.265Z,34.30
2023-02-28T22:59:41.450Z,35.03
2023-02-28T23:02:09.424Z,31.20
2023-02-28T23:04:37.549Z,27.57
2023-02-28T23:07:06.607Z,27.10
2023-02-28T23:09:34.896Z,25.73
2023-02-28T23:12:02.646Z,38.77
2023-02-28T23:14:30.857Z,29.60
2023-02-28T23:16:58.851Z,28.73
2023-02-28T23:19:29.973Z,28.40
2023-02-28T23:21:58.363Z,36.73
2023-02-28T23:24:29.395Z,29.07
2023-02-28T23:27:00.728Z,25.60
2023-02-28T23:29:28.924Z,23.20
2023-02-28T23:31:57.249Z,33.13
2023-02-28T23:34:26.599Z,28.37
2023-02-28T23:36:55.293Z,35.40
2023-02-28T23:39:24.301Z,42.80
2023-02-28T23:41:53.779Z,28.63
2023-02-28T23:44:21.569Z,50.73
2023-02-28T23:46:51.465Z,30.20
2023-02-28T23:49:20.780Z,26.97
2023-02-28T23:51:49.917Z,28.73
2023-02-28T23:54:18.625Z,24.07
2023-02-28T23:56:46.428Z,32.70
2023-02-28T23:59:15.754Z,32.27
